createdAt,value
2018-03-07T00:00:43.244Z,0.30
2018-03-07T00:03:11.713Z,0.30
2018-03-07T00:05:39.347Z,0.30
2018-03-07T00:08:06.994Z,0.30
2018-03-07T00:10:34.615Z,0.30
2018-03-07T00:13:02.323Z,0.30
2018-03-07T00:15:29.944Z,0.30
2018-03-07T00:17:57.610Z,0.30
2018-03-07T00:20:25.332Z,0.30
2018-03-07T00:22:53.009Z,0.30
2018-03-07T00:25:20.648Z,0.30
2018-03-07T00:27:49.055Z,0.30
2018-03-07T00:30:16.683Z,0.30
2018-03-07T00:32:44.338Z,0.30
2018-03-07T00:35:12.019Z,0.30
2018-03-07T00:37:40.423Z,0.30
2018-03-07T00:40:08.865Z,0.30
2018-03-07T00:42:36.511Z,0.30
2018-03-07T00:45:04.491Z,0.30
2018-03-07T00:47:32.136Z,0.30
2018-03-07T00:49:59.787Z,0.30
2018-03-07T00:52:27.435Z,0.30
2018-03-07T00:54:55.852Z,0.30
2018-03-07T00:57:23.513Z,0.30
2018-03-07T00:59:51.218Z,0.30
2018-03-07T01:02:18.912Z,0.30
2018-03-07T01:04:46.585Z,0.30
2018-03-07T01:07:14.975Z,0.30
2018-03-07T01:09:43.364Z,0.30
2018-03-07T01:12:11.040Z,0.30
2018-03-07T01:14:38.703Z,0.30
2018-03-07T01:17:06.347Z,0.30
2018-03-07T01:19:33.972Z,0.30
2018-03-07T01:22:01.629Z,0.30
2018-03-07T01:24:29.258Z,0.20
2018-03-07T01:26:57.676Z,0.20
2018-03-07T01:29:25.336Z,0.20
2018-03-07T01:31:52.977Z,0.20
2018-03-07T01:34:21.398Z,0.20
2018-03-07T01:36:49.347Z,0.20
2018-03-07T01:39:17.029Z,0.20
2018-03-07T01:41:44.641Z,0.20
2018-03-07T01:44:12.296Z,0.20
2018-03-07T01:46:39.946Z,0.20
2018-03-07T01:49:07.611Z,0.20
2018-03-07T01:51:47.193Z,0.20
2018-03-07T01:54:14.876Z,0.20
2018-03-07T01:56:42.558Z,0.20
2018-03-07T01:59:11.444Z,0.20
2018-03-07T02:01:39.119Z,0.20
2018-03-07T02:04:06.808Z,0.20
2018-03-07T02:06:34.467Z,0.20
2018-03-07T02:09:02.145Z,0.20
2018-03-07T02:11:29.774Z,0.20
2018-03-07T02:13:58.205Z,0.20
2018-03-07T02:16:25.875Z,0.10
2018-03-07T02:18:53.524Z,0.20
2018-03-07T02:21:21.255Z,0.20
2018-03-07T02:23:48.910Z,0.20
2018-03-07T02:26:17.381Z,0.20
2018-03-07T02:28:45.013Z,0.20
2018-03-07T02:31:12.691Z,0.20
2018-03-07T02:33:40.352Z,0.20
2018-03-07T02:36:19.802Z,0.20
2018-03-07T02:38:47.469Z,0.20
2018-03-07T02:41:15.131Z,0.20
2018-03-07T02:43:42.796Z,0.20
2018-03-07T02:46:10.502Z,0.20
2018-03-07T02:48:38.129Z,0.20
2018-03-07T02:51:05.818Z,0.20
2018-03-07T02:53:33.487Z,0.20
2018-03-07T02:56:01.185Z,0.20
2018-03-07T02:58:28.863Z,0.20
2018-03-07T03:00:56.515Z,0.20
2018-03-07T03:03:24.957Z,0.20
2018-03-07T03:05:52.589Z,0.20
2018-03-07T03:08:20.240Z,0.20
2018-03-07T03:10:47.898Z,0.20
2018-03-07T03:13:15.569Z,0.20
2018-03-07T03:15:43.498Z,0.20
2018-03-07T03:18:11.171Z,0.20
2018-03-07T03:20:38.833Z,0.20
2018-03-07T03:23:06.522Z,0.20
2018-03-07T03:25:34.167Z,0.20
2018-03-07T03:28:02.080Z,0.20
2018-03-07T03:30:31.069Z,0.20
2018-03-07T03:32:59.494Z,0.20
2018-03-07T03:35:27.360Z,0.20
2018-03-07T03:37:55.023Z,0.20
2018-03-07T03:40:22.756Z,0.20
2018-03-07T03:42:50.431Z,0.20
2018-03-07T03:45:18.840Z,0.20
2018-03-07T03:47:46.488Z,0.20
2018-03-07T03:50:14.158Z,0.20
2018-03-07T03:52:41.823Z,0.20
2018-03-07T03:55:09.472Z,0.20
2018-03-07T03:57:37.097Z,0.20
2018-03-07T04:00:04.730Z,0.20
2018-03-07T04:02:32.444Z,0.20
2018-03-07T04:05:00.377Z,0.10
2018-03-07T04:07:28.076Z,0.10
2018-03-07T04:09:55.712Z,0.10
2018-03-07T04:12:23.402Z,0.10
2018-03-07T04:14:51.016Z,0.10
2018-03-07T04:17:18.924Z,0.10
2018-03-07T04:19:46.533Z,0.10
2018-03-07T04:22:14.193Z,0.10
2018-03-07T04:24:41.807Z,0.10
2018-03-07T04:27:10.207Z,0.10
2018-03-07T04:29:37.851Z,0.10
2018-03-07T04:32:06.282Z,0.10
2018-03-07T04:34:33.912Z,0.10
2018-03-07T04:37:03.063Z,0.10
2018-03-07T04:39:30.704Z,0.10
2018-03-07T04:41:58.382Z,0.10
2018-03-07T04:44:26.047Z,0.10
2018-03-07T04:46:53.738Z,0.10
2018-03-07T04:49:21.470Z,0.10
2018-03-07T04:51:49.078Z,0.10
2018-03-07T04:54:16.735Z,0.10
2018-03-07T04:56:44.379Z,0.10
2018-03-07T04:59:12.057Z,0.10
2018-03-07T05:01:39.670Z,0.10
2018-03-07T05:04:08.063Z,0.10
2018-03-07T05:06:35.707Z,0.10
2018-03-07T05:09:03.921Z,0.10
2018-03-07T05:11:31.548Z,0.10
2018-03-07T05:13:59.192Z,0.10
2018-03-07T05:16:27.626Z,0.10
2018-03-07T05:18:55.327Z,0.10
2018-03-07T05:21:23.035Z,0.10
2018-03-07T05:23:50.707Z,0.10
2018-03-07T05:26:19.113Z,0.10
2018-03-07T05:28:47.542Z,0.10
2018-03-07T05:31:15.151Z,0.10
2018-03-07T05:33:42.965Z,0.10
2018-03-07T05:36:10.821Z,0.10
2018-03-07T05:38:38.491Z,0.10
2018-03-07T05:41:06.118Z,0.10
2018-03-07T05:43:34.518Z,0.10
2018-03-07T05:46:02.934Z,0.10
2018-03-07T05:48:30.545Z,0.10
2018-03-07T05:50:58.187Z,0.10
2018-03-07T05:53:25.810Z,0.10
2018-03-07T05:55:53.699Z,0.10
2018-03-07T05:58:21.373Z,0.10
2018-03-07T06:00:49.030Z,0.10
2018-03-07T06:03:16.714Z,0.10
2018-03-07T06:05:44.407Z,0.10
2018-03-07T06:08:12.834Z,0.10
2018-03-07T06:10:41.161Z,0.10
2018-03-07T06:13:08.825Z,0.10
2018-03-07T06:15:36.440Z,0.10
2018-03-07T06:18:04.859Z,0.10
2018-03-07T06:20:32.629Z,0.10
2018-03-07T06:23:00.236Z,0.10
2018-03-07T06:25:27.874Z,0.10
2018-03-07T06:27:55.507Z,0.10
2018-03-07T06:30:23.094Z,0.10
2018-03-07T06:32:50.732Z,0.20
2018-03-07T06:35:19.100Z,0.20
2018-03-07T06:37:47.533Z,0.20
2018-03-07T06:40:15.145Z,0.10
2018-03-07T06:42:43.568Z,0.20
2018-03-07T06:45:11.192Z,0.20
2018-03-07T06:47:38.828Z,0.20
2018-03-07T06:50:06.502Z,0.20
2018-03-07T06:52:34.898Z,0.20
2018-03-07T06:55:03.304Z,0.20
2018-03-07T06:57:31.689Z,0.30
2018-03-07T07:00:00.326Z,0.20
2018-03-07T07:02:27.923Z,0.20
2018-03-07T07:04:56.357Z,0.30
2018-03-07T07:07:24.429Z,0.20
2018-03-07T07:09:52.062Z,0.30
2018-03-07T07:12:20.445Z,0.30
2018-03-07T07:14:48.860Z,0.30
2018-03-07T07:17:16.476Z,0.30
2018-03-07T07:19:44.134Z,0.30
2018-03-07T07:22:11.775Z,0.30
2018-03-07T07:24:39.410Z,0.30
2018-03-07T07:27:07.026Z,0.30
2018-03-07T07:29:34.678Z,0.30
2018-03-07T07:32:02.266Z,0.30
2018-03-07T07:34:29.904Z,0.30
2018-03-07T07:36:57.521Z,0.40
2018-03-07T07:39:25.919Z,0.40
2018-03-07T07:41:54.334Z,0.40
2018-03-07T07:44:22.737Z,0.40
2018-03-07T07:46:50.366Z,0.40
2018-03-07T07:49:18.728Z,0.40
2018-03-07T07:51:47.122Z,0.40
2018-03-07T07:54:15.528Z,0.40
2018-03-07T07:56:43.176Z,0.40
2018-03-07T07:59:10.810Z,0.50
2018-03-07T08:01:39.384Z,0.50
2018-03-07T08:04:07.014Z,0.50
2018-03-07T08:06:34.714Z,0.50
2018-03-07T08:09:02.314Z,0.50
2018-03-07T08:11:29.979Z,0.50
2018-03-07T08:13:57.622Z,0.50
2018-03-07T08:16:25.248Z,0.60
2018-03-07T08:18:52.876Z,0.60
2018-03-07T08:21:20.494Z,0.70
2018-03-07T08:23:48.135Z,0.70
2018-03-07T08:26:16.564Z,0.80
2018-03-07T08:28:44.195Z,0.80
2018-03-07T08:31:11.859Z,0.80
2018-03-07T08:33:39.523Z,0.80
2018-03-07T08:36:07.186Z,0.90
2018-03-07T08:38:34.839Z,0.90
2018-03-07T08:41:03.271Z,1.00
2018-03-07T08:43:31.680Z,1.00
2018-03-07T08:45:59.371Z,1.10
2018-03-07T08:48:27.018Z,1.10
2018-03-07T08:50:54.664Z,1.10
2018-03-07T08:53:22.342Z,1.10
2018-03-07T08:55:49.940Z,1.10
2018-03-07T08:58:18.654Z,1.10
2018-03-07T09:00:46.276Z,1.10
2018-03-07T09:03:13.891Z,1.10
2018-03-07T09:05:41.532Z,1.10
2018-03-07T09:08:09.140Z,1.20
2018-03-07T09:10:36.804Z,1.20
2018-03-07T09:13:04.457Z,1.20
2018-03-07T09:15:32.102Z,1.20
2018-03-07T09:17:59.737Z,1.20
2018-03-07T09:20:27.341Z,1.20
2018-03-07T09:22:55.086Z,1.20
2018-03-07T09:25:23.459Z,1.20
2018-03-07T09:27:51.058Z,1.20
2018-03-07T09:30:18.837Z,1.20
2018-03-07T09:32:46.485Z,1.20
2018-03-07T09:35:14.108Z,1.20
2018-03-07T09:37:41.705Z,1.20
2018-03-07T09:40:10.166Z,1.20
2018-03-07T09:42:37.810Z,1.20
2018-03-07T09:45:05.464Z,1.20
2018-03-07T09:47:33.851Z,1.20
2018-03-07T09:50:02.248Z,1.20
2018-03-07T09:52:30.194Z,1.20
2018-03-07T09:54:57.797Z,1.30
2018-03-07T09:57:25.478Z,1.30
2018-03-07T09:59:53.156Z,1.30
2018-03-07T10:02:20.782Z,1.30
2018-03-07T10:04:48.440Z,1.30
2018-03-07T10:07:16.864Z,1.30
2018-03-07T10:09:44.521Z,1.30
2018-03-07T10:12:12.167Z,1.30
2018-03-07T10:14:40.726Z,1.30
2018-03-07T10:17:08.342Z,1.30
2018-03-07T10:19:35.990Z,1.30
2018-03-07T10:22:03.836Z,1.30
2018-03-07T10:24:32.242Z,1.30
2018-03-07T10:26:59.861Z,1.30
2018-03-07T10:29:28.306Z,1.30
2018-03-07T10:31:55.933Z,1.30
2018-03-07T10:34:23.542Z,1.40
2018-03-07T10:36:51.176Z,1.40
2018-03-07T10:39:19.015Z,1.40
2018-03-07T10:41:47.424Z,1.40
2018-03-07T10:44:15.163Z,1.40
2018-03-07T10:46:43.573Z,1.50
2018-03-07T10:49:11.159Z,1.40
2018-03-07T10:51:38.806Z,1.50
2018-03-07T10:54:06.423Z,1.50
2018-03-07T10:56:34.337Z,1.50
2018-03-07T10:59:01.962Z,1.50
2018-03-07T11:01:29.572Z,1.50
2018-03-07T11:03:57.210Z,1.50
2018-03-07T11:06:25.654Z,1.60
2018-03-07T11:08:53.314Z,1.60
2018-03-07T11:11:20.967Z,1.60
2018-03-07T11:13:48.599Z,1.60
2018-03-07T11:16:16.999Z,1.60
2018-03-07T11:18:44.983Z,1.70
2018-03-07T11:21:12.591Z,1.70
2018-03-07T11:23:40.265Z,1.70
2018-03-07T11:26:07.915Z,1.80
2018-03-07T11:28:35.523Z,1.80
2018-03-07T11:31:03.188Z,1.90
2018-03-07T11:33:31.573Z,1.90
2018-03-07T11:35:59.979Z,1.90
2018-03-07T11:38:27.606Z,1.80
2018-03-07T11:40:55.254Z,1.90
2018-03-07T11:43:22.932Z,1.90
2018-03-07T11:45:50.542Z,1.90
2018-03-07T11:48:18.916Z,1.90
2018-03-07T11:50:47.338Z,1.90
2018-03-07T11:53:15.176Z,1.80
2018-03-07T11:55:43.523Z,1.90
2018-03-07T11:58:11.142Z,1.90
2018-03-07T12:00:39.122Z,2.00
2018-03-07T12:03:06.715Z,2.00
2018-03-07T12:05:34.315Z,2.00
2018-03-07T12:08:01.952Z,2.10
2018-03-07T12:10:29.551Z,2.10
2018-03-07T12:12:57.975Z,2.10
2018-03-07T12:15:25.579Z,2.10
2018-03-07T12:17:53.498Z,2.10
2018-03-07T12:20:21.132Z,2.10
2018-03-07T12:22:48.742Z,2.10
2018-03-07T12:25:16.358Z,2.10
2018-03-07T12:27:44.355Z,2.10
2018-03-07T12:30:12.757Z,2.10
2018-03-07T12:32:40.357Z,2.10
2018-03-07T12:35:08.032Z,2.10
2018-03-07T12:37:35.672Z,2.10
2018-03-07T12:40:03.267Z,2.10
2018-03-07T12:42:31.045Z,2.10
2018-03-07T12:44:58.653Z,2.10
2018-03-07T12:47:26.252Z,2.10
2018-03-07T12:49:54.193Z,2.10
2018-03-07T12:52:21.792Z,2.10
2018-03-07T12:54:49.693Z,2.10
2018-03-07T12:57:18.751Z,2.10
2018-03-07T12:59:46.347Z,2.10
2018-03-07T13:02:14.700Z,2.10
2018-03-07T13:04:42.302Z,2.00
2018-03-07T13:07:09.937Z,2.00
2018-03-07T13:09:37.593Z,2.00
2018-03-07T13:12:05.234Z,2.00
2018-03-07T13:14:32.830Z,2.00
2018-03-07T13:17:00.474Z,2.00
2018-03-07T13:19:28.086Z,2.00
2018-03-07T13:21:55.714Z,2.00
2018-03-07T13:24:23.381Z,2.00
2018-03-07T13:26:51.085Z,2.00
2018-03-07T13:29:18.687Z,2.00
2018-03-07T13:31:47.094Z,2.00
2018-03-07T13:34:14.693Z,2.00
2018-03-07T13:36:42.322Z,2.00
2018-03-07T13:39:09.962Z,2.10
2018-03-07T13:41:37.579Z,2.10
2018-03-07T13:44:05.263Z,2.10
2018-03-07T13:46:32.881Z,2.10
2018-03-07T13:49:00.523Z,2.10
2018-03-07T13:51:28.170Z,2.10
2018-03-07T13:53:56.592Z,2.20
2018-03-07T13:56:24.313Z,2.10
2018-03-07T13:58:52.189Z,2.20
2018-03-07T14:01:19.838Z,2.10
2018-03-07T14:03:47.495Z,2.10
2018-03-07T14:06:15.882Z,2.10
2018-03-07T14:08:43.545Z,2.10
2018-03-07T14:11:11.956Z,2.00
2018-03-07T14:13:39.605Z,2.00
2018-03-07T14:16:07.251Z,2.10
2018-03-07T14:18:34.890Z,2.00
2018-03-07T14:21:03.243Z,1.90
2018-03-07T14:23:30.900Z,1.90
2018-03-07T14:25:58.570Z,1.90
2018-03-07T14:28:26.166Z,1.90
2018-03-07T14:30:54.580Z,1.90
2018-03-07T14:33:22.240Z,1.90
2018-03-07T14:35:49.855Z,1.90
2018-03-07T14:38:17.496Z,2.00
2018-03-07T14:40:45.082Z,2.00
2018-03-07T14:43:13.277Z,2.00
2018-03-07T14:45:42.421Z,2.00
2018-03-07T14:48:10.013Z,2.00
2018-03-07T14:50:37.642Z,2.00
2018-03-07T14:53:05.278Z,2.00
2018-03-07T14:55:32.896Z,2.00
2018-03-07T14:58:00.548Z,1.90
2018-03-07T15:00:28.192Z,2.00
2018-03-07T15:02:55.818Z,2.00
2018-03-07T15:05:23.414Z,2.00
2018-03-07T15:07:51.087Z,2.10
2018-03-07T15:10:18.758Z,2.10
2018-03-07T15:12:46.367Z,2.10
2018-03-07T15:15:14.251Z,2.00
2018-03-07T15:17:41.887Z,2.00
2018-03-07T15:20:09.531Z,2.00
2018-03-07T15:22:37.181Z,2.00
2018-03-07T15:25:04.861Z,2.00
2018-03-07T15:27:32.484Z,1.90
2018-03-07T15:30:00.107Z,1.90
2018-03-07T15:32:27.733Z,1.80
2018-03-07T15:34:55.364Z,1.80
2018-03-07T15:37:23.040Z,1.80
2018-03-07T15:39:50.668Z,1.80
2018-03-07T15:42:18.272Z,1.80
2018-03-07T15:44:45.912Z,1.80
2018-03-07T15:47:13.552Z,1.80
2018-03-07T15:49:41.226Z,1.80
2018-03-07T15:52:08.872Z,1.70
2018-03-07T15:54:37.280Z,1.80
2018-03-07T15:57:04.890Z,1.70
2018-03-07T15:59:32.534Z,1.70
2018-03-07T16:02:00.188Z,1.70
2018-03-07T16:04:27.858Z,1.70
2018-03-07T16:06:55.488Z,1.70
2018-03-07T16:09:23.895Z,1.70
2018-03-07T16:11:51.563Z,1.60
2018-03-07T16:14:19.217Z,1.70
2018-03-07T16:16:47.642Z,1.70
2018-03-07T16:19:15.259Z,1.70
2018-03-07T16:21:43.623Z,1.70
2018-03-07T16:24:11.401Z,1.70
2018-03-07T16:26:39.004Z,1.70
2018-03-07T16:29:06.690Z,1.70
2018-03-07T16:31:34.337Z,1.70
2018-03-07T16:34:01.991Z,1.70
2018-03-07T16:36:29.592Z,1.70
2018-03-07T16:38:57.230Z,1.70
2018-03-07T16:41:24.872Z,1.70
2018-03-07T16:43:53.276Z,1.60
2018-03-07T16:46:20.884Z,1.60
2018-03-07T16:48:48.517Z,1.60
2018-03-07T16:51:16.158Z,1.60
2018-03-07T16:53:44.563Z,1.60
2018-03-07T16:56:12.218Z,1.60
2018-03-07T16:58:39.857Z,1.60
2018-03-07T17:01:07.506Z,1.60
2018-03-07T17:03:35.174Z,1.70
2018-03-07T17:06:02.820Z,1.60
2018-03-07T17:08:30.476Z,1.60
2018-03-07T17:10:58.185Z,1.60
2018-03-07T17:13:25.862Z,1.60
2018-03-07T17:15:53.567Z,1.60
2018-03-07T17:18:21.217Z,1.60
2018-03-07T17:20:49.621Z,1.60
2018-03-07T17:23:17.509Z,1.60
2018-03-07T17:25:45.193Z,1.60
2018-03-07T17:28:13.660Z,1.60
2018-03-07T17:30:41.301Z,1.60
2018-03-07T17:33:08.924Z,1.60
2018-03-07T17:35:36.586Z,1.60
2018-03-07T17:38:04.982Z,1.60
2018-03-07T17:40:32.654Z,1.60
2018-03-07T17:43:00.261Z,1.60
2018-03-07T17:45:27.875Z,1.60
2018-03-07T17:47:55.564Z,1.60
2018-03-07T17:50:23.984Z,1.60
2018-03-07T17:52:51.959Z,1.60
2018-03-07T17:55:19.586Z,1.60
2018-03-07T17:57:47.966Z,1.60
2018-03-07T18:00:15.634Z,1.60
2018-03-07T18:02:44.025Z,1.50
2018-03-07T18:05:12.428Z,1.60
2018-03-07T18:07:40.351Z,1.50
2018-03-07T18:10:08.001Z,1.60
2018-03-07T18:12:35.697Z,1.60
2018-03-07T18:15:04.118Z,1.60
2018-03-07T18:17:31.781Z,1.60
2018-03-07T18:20:00.154Z,1.60
2018-03-07T18:22:28.580Z,1.60
2018-03-07T18:24:56.953Z,1.50
2018-03-07T18:27:24.600Z,1.60
2018-03-07T18:29:52.265Z,1.60
2018-03-07T18:32:19.997Z,1.60
2018-03-07T18:34:47.664Z,1.60
2018-03-07T18:37:15.284Z,1.60
2018-03-07T18:39:42.938Z,1.60
2018-03-07T18:42:10.601Z,1.60
2018-03-07T18:44:38.227Z,1.60
2018-03-07T18:47:05.999Z,1.60
2018-03-07T18:49:33.661Z,1.60
2018-03-07T18:52:01.415Z,1.60
2018-03-07T18:54:29.081Z,1.60
2018-03-07T18:56:56.705Z,1.60
2018-03-07T18:59:25.134Z,1.60
2018-03-07T19:01:52.765Z,1.60
2018-03-07T19:04:22.111Z,1.60
2018-03-07T19:06:50.001Z,1.60
2018-03-07T19:09:18.441Z,1.60
2018-03-07T19:11:46.704Z,1.60
2018-03-07T19:14:14.515Z,1.60
2018-03-07T19:16:42.222Z,1.60
2018-03-07T19:19:09.850Z,1.60
2018-03-07T19:21:38.346Z,1.50
2018-03-07T19:24:06.824Z,1.50
2018-03-07T19:26:34.488Z,1.50
2018-03-07T19:29:02.080Z,1.50
2018-03-07T19:31:31.452Z,1.50
2018-03-07T19:33:59.095Z,1.50
2018-03-07T19:36:27.444Z,1.50
2018-03-07T19:38:55.165Z,1.50
2018-03-07T19:41:22.779Z,1.50
2018-03-07T19:43:50.490Z,1.50
2018-03-07T19:46:18.122Z,1.50
2018-03-07T19:48:46.544Z,1.50
2018-03-07T19:51:14.214Z,1.50
2018-03-07T19:53:42.115Z,1.50
2018-03-07T19:56:09.733Z,1.50
2018-03-07T19:58:37.342Z,1.40
2018-03-07T20:01:05.009Z,1.40
2018-03-07T20:03:33.412Z,1.40
2018-03-07T20:06:01.029Z,1.40
2018-03-07T20:08:29.450Z,1.40
2018-03-07T20:10:57.113Z,1.40
2018-03-07T20:13:24.803Z,1.30
2018-03-07T20:15:52.482Z,1.30
2018-03-07T20:18:20.148Z,1.30
2018-03-07T20:20:48.587Z,1.30
2018-03-07T20:23:16.200Z,1.30
2018-03-07T20:25:43.929Z,1.30
2018-03-07T20:28:11.595Z,1.30
2018-03-07T20:30:39.276Z,1.30
2018-03-07T20:33:06.912Z,1.30
2018-03-07T20:35:34.556Z,1.30
2018-03-07T20:38:03.992Z,1.30
2018-03-07T20:40:32.605Z,1.30
2018-03-07T20:43:00.295Z,1.30
2018-03-07T20:45:27.888Z,1.30
2018-03-07T20:47:56.318Z,1.20
2018-03-07T20:50:23.967Z,1.20
2018-03-07T20:52:51.731Z,1.20
2018-03-07T20:55:19.320Z,1.20
2018-03-07T20:57:49.664Z,1.20
2018-03-07T21:00:18.361Z,1.20
2018-03-07T21:04:04.559Z,1.20
2018-03-07T21:06:32.927Z,1.20
2018-03-07T21:09:01.372Z,1.20
2018-03-07T21:11:29.026Z,1.20
2018-03-07T21:13:56.613Z,1.20
2018-03-07T21:16:24.274Z,1.20
2018-03-07T21:18:51.897Z,1.20
2018-03-07T21:21:19.508Z,1.20
2018-03-07T21:23:47.171Z,1.20
2018-03-07T21:26:14.820Z,1.20
2018-03-07T21:28:43.094Z,1.20
2018-03-07T21:31:10.730Z,1.20
2018-03-07T21:33:39.145Z,1.20
2018-03-07T21:36:06.946Z,1.20
2018-03-07T21:38:34.593Z,1.20
2018-03-07T21:41:02.983Z,1.20
2018-03-07T21:43:30.639Z,1.20
2018-03-07T21:45:58.328Z,1.20
2018-03-07T21:48:25.974Z,1.20
2018-03-07T21:50:53.728Z,1.10
2018-03-07T21:53:22.003Z,1.10
2018-03-07T21:55:49.671Z,1.20
2018-03-07T21:58:17.319Z,1.20
2018-03-07T22:00:44.945Z,1.20
2018-03-07T22:03:12.617Z,1.20
2018-03-07T22:05:40.316Z,1.20
2018-03-07T22:08:08.785Z,1.20
2018-03-07T22:10:37.264Z,1.20
2018-03-07T22:13:04.875Z,1.20
2018-03-07T22:15:32.537Z,1.20
2018-03-07T22:18:00.180Z,1.20
2018-03-07T22:20:27.879Z,1.20
2018-03-07T22:22:55.506Z,1.30
2018-03-07T22:25:23.186Z,1.30
2018-03-07T22:27:51.611Z,1.30
2018-03-07T22:30:19.279Z,1.20
2018-03-07T22:32:46.942Z,1.30
2018-03-07T22:35:14.593Z,1.30
2018-03-07T22:37:42.234Z,1.30
2018-03-07T22:40:09.906Z,1.30
2018-03-07T22:42:38.349Z,1.30
2018-03-07T22:45:06.013Z,1.30
2018-03-07T22:47:33.638Z,1.30
2018-03-07T22:50:01.354Z,1.20
2018-03-07T22:52:29.018Z,1.20
2018-03-07T22:54:56.656Z,1.20
2018-03-07T22:57:24.312Z,1.20
2018-03-07T22:59:51.929Z,1.20
2018-03-07T23:02:19.556Z,1.20
2018-03-07T23:04:47.200Z,1.20
2018-03-07T23:07:15.581Z,1.20
2018-03-07T23:09:44.014Z,1.20
2018-03-07T23:12:11.628Z,1.20
2018-03-07T23:14:40.002Z,1.20
2018-03-07T23:17:07.640Z,1.20
2018-03-07T23:19:35.328Z,1.20
2018-03-07T23:22:03.775Z,1.20
2018-03-07T23:24:32.212Z,1.20
2018-03-07T23:27:00.615Z,1.20
2018-03-07T23:29:28.232Z,1.20
2018-03-07T23:31:55.867Z,1.20
2018-03-07T23:34:23.473Z,1.20
2018-03-07T23:36:51.130Z,1.30
2018-03-07T23:39:18.763Z,1.20
2018-03-07T23:41:46.443Z,1.30
2018-03-07T23:44:14.093Z,1.30
2018-03-07T23:46:41.721Z,1.20
2018-03-07T23:49:09.342Z,1.20
2018-03-07T23:51:36.965Z,1.20
2018-03-07T23:54:06.178Z,1.30
2018-03-07T23:56:33.806Z,1.30
2018-03-07T23:59:02.132Z,1.30
